Time;durP1;ratioP1;P1;durP2;ratioP2;P2;SDS_P1;SDS_P2;PMS_P1;PMS_P2;Temp;Humidity;BMP_temperature;BMP_pressure;BME280_temperature;BME280_humidity;BME280_pressure;Samples;Min_cycle;Max_cycle;Signal;HPM_P1;HPM_P2
2022/01/08 00:02:05;;;;;;;10.90;3.92;;;1.70;99.90;;;;;;4941709;28;20039;-78
2022/01/08 00:04:30;;;;;;;9.48;3.70;;;1.70;99.90;;;;;;4957819;28;20038;-78
2022/01/08 00:06:56;;;;;;;7.22;3.28;;;1.70;99.90;;;;;;4957410;28;20118;-79
2022/01/08 00:09:22;;;;;;;5.70;3.05;;;1.80;99.90;;;;;;4957492;28;20047;-78
2022/01/08 00:11:47;;;;;;;8.40;3.72;;;1.80;99.90;;;;;;4957431;28;20046;-78
2022/01/08 00:14:14;;;;;;;9.63;4.47;;;1.80;99.90;;;;;;4957779;28;20105;-78
2022/01/08 00:16:40;;;;;;;7.88;4.20;;;1.80;99.90;;;;;;4957144;28;20070;-79
2022/01/08 00:19:06;;;;;;;10.02;3.78;;;1.80;99.90;;;;;;4957353;28;20077;-78
2022/01/08 00:21:32;;;;;;;9.65;4.18;;;1.80;99.90;;;;;;4957211;28;20042;-77
2022/01/08 00:23:57;;;;;;;6.68;3.45;;;1.80;99.90;;;;;;4957534;28;20051;-77
2022/01/08 00:26:23;;;;;;;11.02;3.83;;;1.80;99.90;;;;;;4957258;28;20085;-78
2022/01/08 00:28:48;;;;;;;8.85;3.67;;;1.80;99.90;;;;;;4957131;28;20046;-79
2022/01/08 00:31:14;;;;;;;7.28;3.28;;;1.90;99.90;;;;;;4957468;28;20408;-78
2022/01/08 00:33:40;;;;;;;8.30;3.50;;;1.90;99.90;;;;;;4957087;28;20057;-77
2022/01/08 00:36:07;;;;;;;7.00;3.97;;;1.90;99.90;;;;;;4956760;28;20050;-78
2022/01/08 00:38:32;;;;;;;8.13;3.90;;;1.90;99.90;;;;;;4940776;28;20070;-78
2022/01/08 00:40:58;;;;;;;12.20;3.80;;;1.90;99.90;;;;;;4956926;28;20109;-78
2022/01/08 00:43:24;;;;;;;7.95;3.58;;;1.90;99.90;;;;;;4957217;28;20042;-78
2022/01/08 00:45:50;;;;;;;9.27;3.42;;;2.00;99.90;;;;;;4956676;28;20093;-78
2022/01/08 00:48:16;;;;;;;8.68;4.30;;;1.90;99.90;;;;;;4974098;28;20424;-78
2022/01/08 00:50:41;;;;;;;9.13;4.00;;;1.90;99.90;;;;;;4956069;28;20043;-78
2022/01/08 00:53:07;;;;;;;7.70;4.50;;;1.90;99.90;;;;;;4956694;28;20063;-78
2022/01/08 00:55:32;;;;;;;7.47;4.03;;;1.80;99.90;;;;;;4956480;28;20137;-78
2022/01/08 00:57:58;;;;;;;6.28;4.43;;;1.80;99.90;;;;;;4956543;28;20051;-78
2022/01/08 01:00:24;;;;;;;9.43;4.30;;;1.70;99.90;;;;;;4956592;28;20047;-78
2022/01/08 01:02:49;;;;;;;7.90;4.00;;;1.70;99.90;;;;;;4956779;28;20121;-79
2022/01/08 01:05:15;;;;;;;13.90;4.93;;;1.60;99.90;;;;;;4956319;28;20135;-78
2022/01/08 01:07:41;;;;;;;7.32;4.50;;;1.60;99.90;;;;;;4956380;28;20039;-78
2022/01/08 01:10:08;;;;;;;10.45;4.60;;;1.60;99.90;;;;;;4956708;28;20516;-78
2022/01/08 01:12:34;;;;;;;10.45;4.80;;;1.50;99.90;;;;;;4956448;28;20122;-78
2022/01/08 01:14:59;;;;;;;12.63;4.85;;;1.40;99.90;;;;;;4956306;28;20138;-78
2022/01/08 01:17:25;;;;;;;9.85;5.25;;;1.30;99.90;;;;;;4956526;28;20046;-77
2022/01/08 01:19:50;;;;;;;12.23;5.78;;;1.30;99.90;;;;;;4956129;28;20046;-78
2022/01/08 01:22:19;;;;;;;18.90;5.55;;;1.20;99.90;;;;;;4956204;28;20030;-78
2022/01/08 01:24:46;;;;;;;11.65;5.30;;;1.20;99.90;;;;;;4956066;28;20046;-77
2022/01/08 01:27:52;;;;;;;9.75;5.85;;;1.20;99.90;;;;;;4955921;28;20047;-78
2022/01/08 01:30:18;;;;;;;12.80;5.72;;;1.20;99.90;;;;;;4955530;28;20507;-77
2022/01/08 01:49:05;;;;;;;10.27;6.13;;;1.00;99.90;;;;;;4955704;28;20066;-78
2022/01/08 01:51:31;;;;;;;10.60;5.88;;;1.00;99.90;;;;;;4957962;28;20491;-78
2022/01/08 01:53:57;;;;;;;13.27;6.25;;;1.00;99.90;;;;;;4958370;28;20070;-79
2022/01/08 01:56:22;;;;;;;11.43;5.72;;;0.90;99.90;;;;;;4956044;28;20045;-78
2022/01/08 01:58:48;;;;;;;13.27;6.28;;;0.90;99.90;;;;;;4955865;28;20042;-78
2022/01/08 02:01:15;;;;;;;7.50;4.80;;;0.90;99.90;;;;;;4955617;28;20419;-78
2022/01/08 02:03:41;;;;;;;10.77;5.03;;;0.90;99.90;;;;;;4955838;28;20047;-78
2022/01/08 02:06:07;;;;;;;9.45;5.80;;;0.90;99.90;;;;;;4955378;28;20122;-78
2022/01/08 02:08:34;;;;;;;11.18;4.72;;;1.00;99.90;;;;;;4955615;28;20094;-78
2022/01/08 02:11:00;;;;;;;7.93;4.38;;;1.00;99.90;;;;;;4955921;28;20121;-78
2022/01/08 02:13:27;;;;;;;12.90;4.78;;;1.00;99.90;;;;;;4955555;28;20480;-78
2022/01/08 02:15:54;;;;;;;17.38;5.28;;;1.00;99.90;;;;;;4955397;28;20074;-78
2022/01/08 02:18:22;;;;;;;8.30;4.20;;;1.00;99.90;;;;;;4955721;28;20117;-78
2022/01/08 02:20:47;;;;;;;12.30;4.15;;;1.00;99.90;;;;;;4955348;28;20532;-78
2022/01/08 02:23:13;;;;;;;10.88;5.03;;;1.00;99.90;;;;;;4955809;28;20127;-78
2022/01/08 02:25:39;;;;;;;11.20;4.65;;;1.10;99.90;;;;;;4955319;28;20695;-78
2022/01/08 02:28:05;;;;;;;7.60;4.55;;;1.10;99.90;;;;;;4939492;28;20042;-78
2022/01/08 02:30:31;;;;;;;7.43;4.18;;;1.00;99.90;;;;;;4955550;28;20042;-78
2022/01/08 02:32:57;;;;;;;8.15;3.45;;;1.00;99.90;;;;;;4955453;28;20046;-78
2022/01/08 02:35:22;;;;;;;6.32;3.58;;;1.10;99.90;;;;;;4955080;28;20496;-78
2022/01/08 02:37:51;;;;;;;7.90;3.90;;;1.10;99.90;;;;;;4955406;28;20047;-78
2022/01/08 02:40:22;;;;;;;12.32;4.03;;;1.10;99.90;;;;;;4955302;28;20047;-78
2022/01/08 02:42:51;;;;;;;10.55;4.32;;;1.00;99.90;;;;;;4955386;28;20042;-79
2022/01/08 02:45:18;;;;;;;6.60;3.72;;;1.00;99.90;;;;;;4955174;28;20043;-78
2022/01/08 02:47:44;;;;;;;8.80;3.78;;;1.00;99.90;;;;;;4955237;28;20043;-78
2022/01/08 02:50:10;;;;;;;7.35;3.53;;;1.00;99.90;;;;;;4955149;28;20047;-79
2022/01/08 02:52:41;;;;;;;7.35;3.67;;;0.90;99.90;;;;;;4955307;28;20050;-78
2022/01/08 02:55:07;;;;;;;10.05;4.20;;;1.00;99.90;;;;;;4955337;28;20057;-79
2022/01/08 02:57:33;;;;;;;10.23;3.80;;;1.00;99.90;;;;;;4955202;28;20081;-78
2022/01/08 02:59:58;;;;;;;6.20;3.58;;;1.10;99.90;;;;;;4955373;28;20267;-78
2022/01/08 03:02:24;;;;;;;9.10;3.92;;;1.10;99.90;;;;;;4955174;28;20043;-78
2022/01/08 03:04:50;;;;;;;7.30;3.97;;;1.10;99.90;;;;;;4955139;28;20035;-78
2022/01/08 03:07:15;;;;;;;9.48;3.58;;;1.10;99.90;;;;;;4954933;28;20053;-78
2022/01/08 03:09:42;;;;;;;9.23;3.35;;;1.10;99.90;;;;;;4955092;28;20038;-78
2022/01/08 03:12:10;;;;;;;11.07;4.18;;;1.10;99.90;;;;;;4955103;28;20039;-78
2022/01/08 03:14:35;;;;;;;6.90;3.97;;;1.10;99.90;;;;;;4957684;28;20074;-78
2022/01/08 03:17:01;;;;;;;7.20;4.25;;;1.10;99.90;;;;;;4958155;28;20089;-78
2022/01/08 03:19:27;;;;;;;8.85;5.07;;;1.00;99.90;;;;;;4958590;28;20039;-79
2022/01/08 03:21:54;;;;;;;11.35;4.22;;;1.00;99.90;;;;;;4958382;28;20043;-78
2022/01/08 03:24:28;;;;;;;8.02;3.58;;;1.00;99.90;;;;;;4958649;28;20464;-78
2022/01/08 03:26:54;;;;;;;14.73;4.57;;;0.90;99.90;;;;;;4958131;28;20050;-78
2022/01/08 03:29:20;;;;;;;10.27;4.57;;;0.90;99.90;;;;;;4958251;28;20385;-78
2022/01/08 03:31:46;;;;;;;13.65;4.55;;;0.90;99.90;;;;;;4958250;28;20053;-79
2022/01/08 03:34:11;;;;;;;11.25;4.75;;;0.90;99.90;;;;;;4958115;28;20442;-78
2022/01/08 03:36:37;;;;;;;11.40;4.65;;;0.90;99.90;;;;;;4958198;28;20053;-79
2022/01/08 03:39:03;;;;;;;14.20;4.90;;;0.90;99.90;;;;;;4957952;28;20069;-78
2022/01/08 03:41:28;;;;;;;16.52;4.80;;;0.90;99.90;;;;;;4942104;28;20420;-78
2022/01/08 03:43:54;;;;;;;9.05;4.70;;;0.90;99.90;;;;;;4942207;28;20397;-78
2022/01/08 03:46:21;;;;;;;12.85;5.18;;;1.00;99.90;;;;;;4957713;28;20046;-78
2022/01/08 03:49:10;;;;;;;11.45;4.35;;;1.00;99.90;;;;;;4941825;28;20038;-78
2022/01/08 03:51:33;;;;;;;12.32;4.95;;;1.00;99.90;;;;;;4957870;28;20055;-78
2022/01/08 03:53:59;;;;;;;8.48;4.82;;;1.10;99.90;;;;;;4957795;28;20054;-78
2022/01/08 03:56:26;;;;;;;21.17;5.50;;;1.10;99.90;;;;;;4957642;28;20042;-78
2022/01/08 03:58:52;;;;;;;16.02;5.43;;;1.20;99.90;;;;;;4941750;28;20051;-78
2022/01/08 04:01:17;;;;;;;12.52;6.43;;;1.20;99.90;;;;;;4957632;28;20043;-78
2022/01/08 04:03:43;;;;;;;12.38;5.82;;;1.30;99.90;;;;;;4957617;28;20077;-78
2022/01/08 04:06:08;;;;;;;8.45;5.15;;;1.30;99.90;;;;;;4957546;28;20047;-78
2022/01/08 04:08:34;;;;;;;11.88;4.95;;;1.30;99.90;;;;;;4957729;28;20038;-78
2022/01/08 04:11:01;;;;;;;11.65;5.40;;;1.40;99.90;;;;;;4957552;28;20073;-78
2022/01/08 04:13:29;;;;;;;11.05;5.35;;;1.40;99.90;;;;;;4957369;28;20555;-78
2022/01/08 04:16:00;;;;;;;10.63;5.13;;;1.40;99.90;;;;;;4957253;28;20039;-78
2022/01/08 04:18:26;;;;;;;10.82;4.93;;;1.40;99.90;;;;;;4957339;28;20097;-78
2022/01/08 04:21:16;;;;;;;10.95;4.88;;;1.40;99.90;;;;;;4957308;28;20043;-78
2022/01/08 04:23:40;;;;;;;14.57;4.63;;;1.30;99.90;;;;;;4957370;28;20559;-78
2022/01/08 04:26:05;;;;;;;13.23;5.45;;;1.30;99.90;;;;;;4956287;28;20045;-78
2022/01/08 04:28:31;;;;;;;9.13;4.95;;;1.20;99.90;;;;;;4957390;28;20495;-78
2022/01/08 04:30:56;;;;;;;12.88;4.88;;;1.20;99.90;;;;;;4957393;28;20053;-78
2022/01/08 04:33:22;;;;;;;12.32;4.78;;;1.20;99.90;;;;;;4957486;28;20508;-78
2022/01/08 04:35:47;;;;;;;7.13;4.45;;;1.10;99.90;;;;;;4957002;28;20054;-78
2022/01/08 04:38:13;;;;;;;16.92;4.38;;;1.10;99.90;;;;;;4941188;28;20053;-78
2022/01/08 04:40:40;;;;;;;6.07;4.25;;;1.10;99.90;;;;;;4957035;28;20077;-79
2022/01/08 04:43:06;;;;;;;11.35;4.25;;;1.00;99.90;;;;;;4956964;28;20047;-78
2022/01/08 04:45:31;;;;;;;14.07;4.95;;;1.00;99.90;;;;;;4956731;28;20039;-78
2022/01/08 04:47:59;;;;;;;8.30;4.15;;;0.90;99.90;;;;;;4957077;28;20049;-78
2022/01/08 04:50:26;;;;;;;8.32;4.55;;;0.90;99.90;;;;;;4956854;28;20537;-78
2022/01/08 04:52:51;;;;;;;13.02;4.13;;;0.90;99.90;;;;;;4956684;28;20130;-78
2022/01/08 04:55:17;;;;;;;11.73;4.20;;;0.90;99.90;;;;;;4956548;28;20462;-79
2022/01/08 04:57:43;;;;;;;11.13;4.43;;;0.80;99.90;;;;;;4956676;28;20534;-79
2022/01/08 05:00:09;;;;;;;9.10;3.78;;;0.80;99.90;;;;;;4956537;28;20066;-78
2022/01/08 05:02:35;;;;;;;9.55;3.50;;;0.80;99.90;;;;;;4956613;28;20047;-78
2022/01/08 05:05:01;;;;;;;6.00;3.17;;;0.80;99.90;;;;;;4940664;28;20042;-79
2022/01/08 05:07:26;;;;;;;13.05;3.33;;;0.90;99.90;;;;;;4956707;28;20046;-79
2022/01/08 05:09:52;;;;;;;12.45;3.75;;;0.90;99.90;;;;;;4956668;28;20070;-78
2022/01/08 05:12:17;;;;;;;10.10;3.70;;;0.90;99.90;;;;;;4956788;28;20137;-78
2022/01/08 05:14:44;;;;;;;8.48;3.38;;;1.00;99.90;;;;;;4956358;28;20127;-78
2022/01/08 05:17:10;;;;;;;5.40;2.70;;;0.90;99.90;;;;;;4956119;28;20500;-79
2022/01/08 05:19:46;;;;;;;8.82;3.83;;;0.90;99.90;;;;;;4956426;28;20381;-78
2022/01/08 05:22:22;;;;;;;7.95;3.90;;;0.90;99.90;;;;;;4956256;28;20077;-79
2022/01/08 05:24:47;;;;;;;10.30;3.38;;;0.90;99.90;;;;;;4956348;28;20046;-78
2022/01/08 05:27:17;;;;;;;8.35;3.40;;;0.90;99.90;;;;;;4955984;28;20522;-79
2022/01/08 05:29:47;;;;;;;6.28;3.80;;;0.80;99.90;;;;;;4955937;28;20093;-78
2022/01/08 05:32:16;;;;;;;7.57;3.65;;;0.80;99.90;;;;;;4956201;28;20102;-79
2022/01/08 05:34:43;;;;;;;8.77;4.13;;;0.80;99.90;;;;;;4956275;28;20047;-80
2022/01/08 05:37:09;;;;;;;8.23;3.63;;;0.80;99.90;;;;;;4955543;28;20053;-78
2022/01/08 05:39:35;;;;;;;10.07;3.90;;;0.80;99.90;;;;;;4955838;28;20038;-79
2022/01/08 05:42:00;;;;;;;10.80;3.85;;;0.80;99.90;;;;;;4956251;28;20046;-79
2022/01/08 05:44:26;;;;;;;14.73;5.05;;;0.80;99.90;;;;;;4955877;28;20039;-79
2022/01/08 05:46:51;;;;;;;11.32;3.60;;;0.80;99.90;;;;;;4955758;28;20604;-79
2022/01/08 05:49:17;;;;;;;5.72;3.75;;;0.70;99.90;;;;;;4955752;28;20765;-79
2022/01/08 05:51:43;;;;;;;10.43;4.00;;;0.70;99.90;;;;;;4955852;28;20043;-79
2022/01/08 05:54:09;;;;;;;10.13;4.50;;;0.70;99.90;;;;;;4955826;28;20081;-79
2022/01/08 05:56:35;;;;;;;11.10;3.45;;;0.70;99.90;;;;;;4955908;28;20074;-80
2022/01/08 05:59:00;;;;;;;12.13;4.88;;;0.70;99.90;;;;;;4955681;28;20516;-79
2022/01/08 06:01:26;;;;;;;8.90;4.03;;;0.60;99.90;;;;;;4955680;28;20065;-79
2022/01/08 06:03:52;;;;;;;9.73;4.50;;;0.60;99.90;;;;;;4955641;28;20404;-79
2022/01/08 06:06:17;;;;;;;8.25;4.00;;;0.60;99.90;;;;;;4955443;28;20042;-79
2022/01/08 06:08:43;;;;;;;12.57;4.80;;;0.60;99.90;;;;;;4955657;28;20039;-80
2022/01/08 06:11:08;;;;;;;20.48;4.38;;;0.60;99.90;;;;;;4955656;28;20054;-79
2022/01/08 06:13:34;;;;;;;12.80;4.10;;;0.60;99.90;;;;;;4955671;28;20039;-79
2022/01/08 06:15:59;;;;;;;9.07;4.25;;;0.50;99.90;;;;;;4955699;28;20093;-80
2022/01/08 06:18:25;;;;;;;6.57;4.32;;;0.50;99.90;;;;;;4956000;28;20210;-80
2022/01/08 06:20:51;;;;;;;9.82;4.18;;;0.40;99.90;;;;;;4956030;28;20463;-79
2022/01/08 06:23:16;;;;;;;11.25;4.07;;;0.40;99.90;;;;;;4955773;28;20555;-79
2022/01/08 06:25:43;;;;;;;9.10;3.90;;;0.40;99.90;;;;;;4955942;28;20043;-79
2022/01/08 06:28:10;;;;;;;10.63;4.57;;;0.30;99.90;;;;;;4955420;28;20054;-80
2022/01/08 06:30:36;;;;;;;11.57;4.32;;;0.30;99.90;;;;;;4955600;28;20046;-79
2022/01/08 06:33:02;;;;;;;12.48;4.40;;;0.30;99.90;;;;;;4972801;28;20046;-79
2022/01/08 06:35:28;;;;;;;12.15;4.28;;;0.30;99.90;;;;;;4955299;28;20404;-80
2022/01/08 06:37:53;;;;;;;8.75;4.82;;;0.20;99.90;;;;;;4955315;28;20047;-80
2022/01/08 06:40:19;;;;;;;13.40;4.60;;;0.20;99.90;;;;;;4955482;28;20125;-79
2022/01/08 06:42:45;;;;;;;9.27;4.13;;;0.10;99.90;;;;;;4955386;28;20039;-79
2022/01/08 06:45:10;;;;;;;11.77;4.45;;;0.10;99.90;;;;;;4955302;28;20039;-79
2022/01/08 06:47:36;;;;;;;12.23;4.70;;;0.10;99.90;;;;;;4955283;28;20046;-79
2022/01/08 06:50:02;;;;;;;7.97;3.70;;;0.10;99.90;;;;;;4958940;28;20458;-79
2022/01/08 06:52:28;;;;;;;10.90;4.15;;;0.00;99.90;;;;;;4958998;28;20121;-80
2022/01/08 06:54:53;;;;;;;8.15;3.67;;;0.10;99.90;;;;;;4959019;28;20120;-79
2022/01/08 06:57:19;;;;;;;11.35;3.70;;;0.10;99.90;;;;;;4943795;28;20055;-80
2022/01/08 06:59:44;;;;;;;6.85;4.03;;;0.10;99.90;;;;;;4945593;28;20149;-80
2022/01/08 07:02:10;;;;;;;8.35;3.92;;;0.00;99.90;;;;;;4945231;28;20042;-83
2022/01/08 07:04:36;;;;;;;15.27;4.50;;;0.00;99.90;;;;;;4947954;28;20034;-81
2022/01/08 07:07:01;;;;;;;12.38;5.13;;;0.10;99.90;;;;;;4963950;28;20440;-82
2022/01/08 07:09:27;;;;;;;10.50;4.05;;;0.00;99.90;;;;;;4962686;28;20071;-81
2022/01/08 07:11:52;;;;;;;6.13;3.42;;;0.00;99.90;;;;;;4963657;28;20063;-81
2022/01/08 07:14:18;;;;;;;8.35;4.90;;;0.00;99.90;;;;;;4963115;28;20046;-81
2022/01/08 07:16:44;;;;;;;8.88;3.83;;;0.00;99.90;;;;;;4961801;28;20039;-80
2022/01/08 07:19:09;;;;;;;8.88;4.50;;;0.00;99.90;;;;;;4960692;28;20054;-81
2022/01/08 07:21:35;;;;;;;13.48;4.78;;;0.00;99.90;;;;;;4945011;28;20049;-80
2022/01/08 07:24:00;;;;;;;22.30;9.13;;;0.00;99.90;;;;;;4945066;28;20039;-80
2022/01/08 07:26:26;;;;;;;8.50;3.47;;;0.00;99.90;;;;;;4944971;28;20155;-80
2022/01/08 07:28:51;;;;;;;12.18;3.60;;;-0.10;99.90;;;;;;4961086;28;20035;-80
2022/01/08 07:31:17;;;;;;;6.65;3.28;;;0.00;99.90;;;;;;4945079;28;20046;-80
2022/01/08 07:33:42;;;;;;;8.85;3.53;;;-0.10;99.90;;;;;;4960891;28;20050;-80
2022/01/08 07:36:08;;;;;;;12.57;3.92;;;-0.10;99.90;;;;;;4944125;28;20047;-80
2022/01/08 07:38:33;;;;;;;7.20;3.78;;;0.00;99.90;;;;;;4962432;28;20050;-82
2022/01/08 07:40:59;;;;;;;6.10;3.08;;;0.00;99.90;;;;;;4953058;28;20106;-83
2022/01/08 07:43:24;;;;;;;10.38;3.53;;;0.00;99.90;;;;;;4962288;28;20039;-80
2022/01/08 07:45:51;;;;;;;7.70;3.05;;;0.00;99.90;;;;;;4960876;28;20078;-81
2022/01/08 07:48:16;;;;;;;4.32;3.10;;;0.00;99.90;;;;;;4961364;28;20042;-81
2022/01/08 07:50:42;;;;;;;15.93;4.70;;;0.10;99.90;;;;;;4962167;28;20101;-80
2022/01/08 07:53:08;;;;;;;13.32;4.82;;;0.10;99.90;;;;;;4979686;28;20066;-80
2022/01/08 07:55:33;;;;;;;8.63;3.90;;;0.10;99.90;;;;;;4960816;28;20074;-81
2022/01/08 07:57:59;;;;;;;10.93;3.10;;;0.10;99.90;;;;;;4978691;28;20110;-80
2022/01/08 08:00:24;;;;;;;12.73;4.05;;;0.10;99.90;;;;;;4946467;28;20472;-81
2022/01/08 08:02:50;;;;;;;6.97;3.70;;;0.20;99.90;;;;;;4944766;28;20098;-80
2022/01/08 08:05:16;;;;;;;7.90;3.65;;;0.20;99.90;;;;;;4960262;28;20035;-81
2022/01/08 08:07:41;;;;;;;12.50;3.85;;;0.20;99.90;;;;;;4959681;28;20043;-80
2022/01/08 08:10:13;;;;;;;6.95;3.45;;;0.30;99.90;;;;;;4960902;28;20102;-81
2022/01/08 08:12:40;;;;;;;7.30;3.55;;;0.30;99.90;;;;;;4946277;28;20082;-80
2022/01/08 08:15:07;;;;;;;8.32;3.97;;;0.40;99.90;;;;;;4961895;28;20046;-80
2022/01/08 08:17:33;;;;;;;8.95;3.92;;;0.40;99.90;;;;;;4963290;28;20074;-80
2022/01/08 08:19:59;;;;;;;8.30;4.28;;;0.50;99.90;;;;;;4962619;28;20054;-81
2022/01/08 08:22:24;;;;;;;6.88;3.22;;;0.50;99.90;;;;;;4962085;28;20097;-80
2022/01/08 08:24:50;;;;;;;9.07;3.35;;;0.50;99.90;;;;;;4958864;28;20046;-81
2022/01/08 08:27:16;;;;;;;6.63;3.55;;;0.60;99.90;;;;;;4944577;28;20129;-80
2022/01/08 08:29:41;;;;;;;6.85;3.05;;;0.60;99.90;;;;;;4965963;28;20438;-81
2022/01/08 08:32:07;;;;;;;10.55;3.75;;;0.70;99.90;;;;;;4960741;28;20064;-79
2022/01/08 08:34:33;;;;;;;7.93;3.22;;;0.70;99.90;;;;;;4944798;28;20039;-80
2022/01/08 08:36:59;;;;;;;10.35;3.33;;;0.80;99.90;;;;;;4986509;28;20049;-83
2022/01/08 08:39:25;;;;;;;16.02;4.03;;;0.80;99.90;;;;;;4962882;28;20039;-80
2022/01/08 08:41:51;;;;;;;10.40;3.17;;;0.90;99.90;;;;;;4943726;28;20121;-80
2022/01/08 08:44:16;;;;;;;8.88;4.18;;;0.90;99.90;;;;;;4958314;28;20121;-82
2022/01/08 08:46:42;;;;;;;11.88;4.13;;;1.00;99.90;;;;;;4940974;28;20045;-79
2022/01/08 08:49:08;;;;;;;8.60;3.60;;;1.10;99.90;;;;;;4956938;28;20051;-79
2022/01/08 08:51:33;;;;;;;7.53;3.53;;;1.20;99.90;;;;;;4945052;28;20046;-82
2022/01/08 08:53:59;;;;;;;8.93;4.03;;;1.30;99.90;;;;;;4963720;28;20090;-80
2022/01/08 08:56:25;;;;;;;6.70;3.60;;;1.40;99.90;;;;;;4942302;28;20073;-81
2022/01/08 08:58:50;;;;;;;13.65;4.40;;;1.50;99.90;;;;;;4966393;28;20050;-83
2022/01/08 09:01:16;;;;;;;8.48;4.70;;;1.60;99.90;;;;;;4946741;28;20042;-82
2022/01/08 09:03:41;;;;;;;8.73;4.35;;;1.70;99.90;;;;;;4961854;28;20035;-82
2022/01/08 09:06:07;;;;;;;8.68;4.10;;;1.70;99.90;;;;;;4944950;28;20174;-83
2022/01/08 09:08:32;;;;;;;13.20;5.38;;;1.70;99.90;;;;;;4946919;28;20038;-82
2022/01/08 09:10:58;;;;;;;9.93;4.32;;;1.70;99.90;;;;;;4961820;28;20546;-83
2022/01/08 09:13:25;;;;;;;8.50;4.43;;;1.60;99.90;;;;;;4947993;28;20089;-82
2022/01/08 09:15:51;;;;;;;9.52;4.32;;;1.60;99.90;;;;;;4949172;28;20093;-83
2022/01/08 09:18:17;;;;;;;12.73;4.80;;;1.60;99.90;;;;;;4950368;28;20047;-82
2022/01/08 09:20:43;;;;;;;10.20;4.45;;;1.60;99.90;;;;;;4950345;28;20043;-82
2022/01/08 09:23:09;;;;;;;11.05;5.03;;;1.60;99.90;;;;;;4965045;28;20034;-82
2022/01/08 09:25:35;;;;;;;12.30;5.57;;;1.60;99.90;;;;;;4964358;28;20119;-82
2022/01/08 09:28:00;;;;;;;15.60;4.95;;;1.60;99.90;;;;;;4964181;28;20065;-82
2022/01/08 09:30:26;;;;;;;11.60;4.68;;;1.70;99.90;;;;;;4964995;28;20046;-81
2022/01/08 09:32:52;;;;;;;10.77;5.30;;;1.60;99.90;;;;;;4948907;28;20042;-83
2022/01/08 09:35:18;;;;;;;16.67;5.25;;;1.70;99.90;;;;;;4964856;28;20054;-82
2022/01/08 09:37:44;;;;;;;13.15;5.28;;;1.80;99.90;;;;;;4965103;28;20042;-82
2022/01/08 09:40:13;;;;;;;12.10;5.88;;;1.80;99.90;;;;;;4963938;28;20047;-83
2022/01/08 09:42:43;;;;;;;12.20;4.75;;;1.80;99.90;;;;;;4965462;28;20038;-82
2022/01/08 09:45:10;;;;;;;8.27;4.95;;;1.90;99.90;;;;;;4962314;28;20054;-83
2022/01/08 09:47:36;;;;;;;13.02;5.35;;;1.90;99.90;;;;;;4963805;28;20071;-83
2022/01/08 09:50:04;;;;;;;11.38;5.72;;;1.80;99.90;;;;;;4961666;28;20125;-83
2022/01/08 09:52:31;;;;;;;15.38;6.38;;;1.80;99.90;;;;;;4960812;28;20050;-83
2022/01/08 09:54:56;;;;;;;10.20;5.30;;;1.80;99.90;;;;;;4960507;28;20109;-83
2022/01/08 09:57:22;;;;;;;18.83;6.68;;;2.10;99.90;;;;;;4960105;28;20054;-82
2022/01/08 09:59:47;;;;;;;16.60;6.22;;;2.50;99.90;;;;;;4960440;28;20050;-83
2022/01/08 10:02:13;;;;;;;11.05;5.80;;;2.70;99.90;;;;;;4945753;28;20066;-82
2022/01/08 10:04:40;;;;;;;10.50;6.03;;;3.10;99.90;;;;;;4961963;28;20116;-82
2022/01/08 10:07:32;;;;;;;10.10;4.75;;;3.20;99.90;;;;;;4961007;28;20047;-83
2022/01/08 10:10:17;;;;;;;13.45;5.93;;;3.20;99.90;;;;;;4956995;28;20092;-82
2022/01/08 10:12:49;;;;;;;13.30;5.75;;;3.10;99.90;;;;;;4959579;28;20047;-83
2022/01/08 10:18:25;;;;;;;14.48;5.85;;;3.00;99.90;;;;;;4959201;28;20097;-82
2022/01/08 10:20:52;;;;;;;12.80;5.75;;;3.00;99.90;;;;;;4957238;28;20038;-82
2022/01/08 10:23:20;;;;;;;15.00;6.28;;;2.90;99.90;;;;;;4947495;28;20122;-83
2022/01/08 10:26:02;;;;;;;9.70;5.25;;;3.00;99.90;;;;;;4945927;28;20154;-82
2022/01/08 10:28:35;;;;;;;14.32;5.55;;;3.00;99.90;;;;;;4962615;28;20046;-82
2022/01/08 10:31:12;;;;;;;8.55;5.15;;;3.00;99.90;;;;;;4964370;28;20050;-80
2022/01/08 10:33:38;;;;;;;11.98;4.97;;;3.10;99.90;;;;;;4964060;28;20163;-80
2022/01/08 10:36:04;;;;;;;11.35;5.25;;;3.10;99.90;;;;;;4961938;28;20066;-79
2022/01/08 10:38:30;;;;;;;14.63;5.32;;;3.10;99.90;;;;;;4966755;28;20043;-80
2022/01/08 10:40:58;;;;;;;13.32;4.47;;;3.20;99.90;;;;;;4963952;28;20134;-78
2022/01/08 10:43:29;;;;;;;8.80;4.53;;;3.20;99.90;;;;;;4960474;28;20458;-78
2022/01/08 10:46:07;;;;;;;13.73;5.28;;;3.20;99.90;;;;;;4959809;28;20447;-78
2022/01/08 10:48:33;;;;;;;8.23;4.10;;;3.30;99.90;;;;;;4960329;28;20038;-78
2022/01/08 10:51:18;;;;;;;8.65;4.95;;;3.20;99.90;;;;;;4959961;28;20141;-78
2022/01/08 10:54:15;;;;;;;12.75;5.10;;;3.30;99.90;;;;;;4962865;28;20066;-80
2022/01/08 10:56:42;;;;;;;9.88;5.15;;;3.30;99.90;;;;;;4984967;28;20051;-79
2022/01/08 10:59:21;;;;;;;17.05;6.07;;;3.30;99.90;;;;;;4951509;28;20039;-81
2022/01/08 11:01:51;;;;;;;10.07;5.03;;;3.40;99.90;;;;;;4950042;28;20042;-80
2022/01/08 11:04:19;;;;;;;12.32;5.30;;;3.40;99.90;;;;;;4965926;28;20054;-80
2022/01/08 11:06:50;;;;;;;10.80;4.57;;;3.40;99.90;;;;;;4958901;28;20045;-78
2022/01/08 11:09:15;;;;;;;13.32;5.82;;;3.40;99.90;;;;;;4977888;28;20047;-80
2022/01/08 11:11:43;;;;;;;13.05;5.82;;;3.50;99.90;;;;;;4982888;28;20416;-80
2022/01/08 11:14:22;;;;;;;14.35;6.25;;;3.50;99.90;;;;;;4959778;28;20055;-83
2022/01/08 11:16:53;;;;;;;13.80;5.07;;;3.50;99.90;;;;;;4975107;28;20126;-83
2022/01/08 11:19:20;;;;;;;8.68;5.50;;;3.60;99.90;;;;;;4976668;28;20039;-83
2022/01/08 11:21:48;;;;;;;14.35;5.47;;;3.60;99.90;;;;;;4959230;28;20047;-83
2022/01/08 11:24:17;;;;;;;11.38;6.45;;;3.50;99.90;;;;;;4976217;28;20039;-83
2022/01/08 11:26:46;;;;;;;11.45;5.88;;;3.60;99.90;;;;;;4980746;28;20098;-81
2022/01/08 11:29:14;;;;;;;16.05;6.50;;;3.60;99.90;;;;;;4964259;28;20034;-81
2022/01/08 11:31:40;;;;;;;12.25;6.88;;;3.60;99.90;;;;;;4966125;28;20046;-81
2022/01/08 11:34:10;;;;;;;10.00;6.47;;;3.60;99.90;;;;;;4981238;28;20407;-81
2022/01/08 11:36:35;;;;;;;21.83;6.95;;;3.60;99.90;;;;;;4980334;28;20524;-81
2022/01/08 11:39:02;;;;;;;15.77;6.93;;;3.60;99.90;;;;;;4980848;28;20069;-81
2022/01/08 11:41:29;;;;;;;16.27;7.45;;;3.70;99.90;;;;;;4981532;28;20038;-82
2022/01/08 11:43:55;;;;;;;16.42;7.32;;;3.70;99.90;;;;;;4978302;28;20047;-80
2022/01/08 11:46:23;;;;;;;13.20;8.50;;;3.70;99.90;;;;;;4977745;28;20034;-79
2022/01/08 11:48:51;;;;;;;18.48;7.82;;;3.70;99.90;;;;;;4962721;28;20062;-81
2022/01/08 11:51:23;;;;;;;15.10;7.55;;;3.70;99.90;;;;;;4981942;28;20053;-81
2022/01/08 11:53:50;;;;;;;;;;;3.80;99.90;;;;;;4977654;28;20129;-78
2022/01/08 11:56:39;;;;;;;13.60;7.32;;;3.80;99.90;;;;;;4974772;28;19922;-80
2022/01/08 11:59:04;;;;;;;12.25;7.82;;;3.80;99.90;;;;;;4974297;28;20129;-79
2022/01/08 12:01:30;;;;;;;21.20;10.20;;;3.70;99.90;;;;;;4958266;28;20130;-79
2022/01/08 12:03:55;;;;;;;20.08;9.32;;;3.70;99.90;;;;;;4974227;28;20043;-79
2022/01/08 12:06:32;;;;;;;15.93;8.80;;;3.60;99.90;;;;;;4957871;28;20035;-79
2022/01/08 12:09:19;;;;;;;19.58;9.57;;;3.70;99.90;;;;;;4974367;28;20042;-82
2022/01/08 12:11:44;;;;;;;19.75;10.43;;;3.60;99.90;;;;;;4975065;28;20047;-79
2022/01/08 12:14:15;;;;;;;22.10;10.88;;;3.60;99.90;;;;;;4959347;28;20042;-80
2022/01/08 12:16:46;;;;;;;22.00;9.73;;;3.60;99.90;;;;;;4974787;28;20049;-81
2022/01/08 12:19:54;;;;;;;16.05;10.00;;;3.60;99.90;;;;;;4977857;28;20086;-80
2022/01/08 12:22:19;;;;;;;17.50;9.25;;;3.60;99.90;;;;;;4969332;28;20137;-80
2022/01/08 12:25:03;;;;;;;20.48;9.38;;;3.60;99.90;;;;;;4961179;28;20085;-81
2022/01/08 12:27:46;;;;;;;15.77;10.65;;;3.60;99.90;;;;;;4962005;28;20157;-80
2022/01/08 12:30:17;;;;;;;17.02;10.45;;;3.50;99.90;;;;;;4961946;28;20082;-81
2022/01/08 12:32:50;;;;;;;27.20;11.02;;;3.60;99.90;;;;;;4977194;28;20046;-85
2022/01/08 12:35:19;;;;;;;18.20;11.10;;;3.50;99.90;;;;;;4977516;28;20057;-83
2022/01/08 12:37:59;;;;;;;19.15;10.00;;;3.50;99.90;;;;;;4976364;28;20047;-84
2022/01/08 12:40:45;;;;;;;26.95;12.93;;;3.60;99.90;;;;;;4960916;28;20054;-81
2022/01/08 12:43:30;;;;;;;17.48;10.65;;;3.60;99.90;;;;;;4973863;28;20039;-81
2022/01/08 12:46:15;;;;;;;25.17;11.23;;;3.60;99.90;;;;;;4972985;28;20053;-78
2022/01/08 12:49:03;;;;;;;22.70;11.63;;;3.60;99.90;;;;;;4957367;28;20488;-78
2022/01/08 12:52:04;;;;;;;20.58;11.27;;;3.60;99.90;;;;;;4957078;28;20046;-78
2022/01/08 12:54:30;;;;;;;22.27;11.40;;;3.60;99.90;;;;;;4973710;28;20046;-78
2022/01/08 12:57:00;;;;;;;19.83;11.88;;;3.60;99.90;;;;;;4973229;28;20066;-78
2022/01/08 12:59:39;;;;;;;21.60;11.50;;;3.60;99.90;;;;;;4973200;28;20054;-78
2022/01/08 13:02:09;;;;;;;20.48;10.63;;;3.60;99.90;;;;;;4956866;28;20047;-78
2022/01/08 13:04:36;;;;;;;22.48;10.98;;;3.60;99.90;;;;;;4956823;28;20118;-78
2022/01/08 13:07:01;;;;;;;24.92;11.38;;;3.70;99.90;;;;;;4972958;28;20053;-81
2022/01/08 13:09:27;;;;;;;24.98;11.20;;;3.70;99.90;;;;;;4956681;28;20035;-80
2022/01/08 13:11:52;;;;;;;19.67;11.70;;;3.70;99.90;;;;;;4972662;28;20041;-78
2022/01/08 13:14:21;;;;;;;21.52;9.85;;;3.70;99.90;;;;;;4972829;28;20120;-78